Time;durP1;ratioP1;P1;durP2;ratioP2;P2;SDS_P1;SDS_P2;PMS_P1;PMS_P2;Temp;Humidity;BMP_temperature;BMP_pressure;BME280_temperature;BME280_humidity;BME280_pressure;Samples;Min_cycle;Max_cycle;Signal;HPM_P1;HPM_P2
2021/06/18 00:00:26;;;;;;;9.23;3.50;;;15.90;99.90;;;;;;5039578;28;20024;-66
2021/06/18 00:02:52;;;;;;;11.93;3.95;;;15.90;99.90;;;;;;5039284;28;20459;-66
2021/06/18 00:05:19;;;;;;;13.38;3.85;;;15.90;99.90;;;;;;5039203;28;20441;-66
2021/06/18 00:07:48;;;;;;;10.60;3.75;;;15.90;99.90;;;;;;5037792;28;20044;-66
2021/06/18 00:10:16;;;;;;;12.02;4.38;;;15.90;99.90;;;;;;5039293;28;20547;-66
2021/06/18 00:12:42;;;;;;;12.52;3.85;;;15.90;99.90;;;;;;5039131;28;20505;-66
2021/06/18 00:15:10;;;;;;;8.50;4.13;;;16.00;99.90;;;;;;5039268;28;20036;-66
2021/06/18 00:17:36;;;;;;;15.57;5.22;;;15.90;99.90;;;;;;5038903;28;20025;-66
2021/06/18 00:20:04;;;;;;;10.63;4.30;;;16.00;99.90;;;;;;5039479;28;20022;-66
2021/06/18 00:22:30;;;;;;;9.35;3.80;;;16.00;99.90;;;;;;5039054;28;20030;-66
2021/06/18 00:24:57;;;;;;;10.63;4.45;;;16.00;99.90;;;;;;5038919;28;20021;-66
2021/06/18 00:27:23;;;;;;;8.60;4.32;;;16.10;99.90;;;;;;5038647;28;20037;-66
2021/06/18 00:29:49;;;;;;;11.80;4.70;;;16.00;99.90;;;;;;5038706;28;20053;-66
2021/06/18 00:32:15;;;;;;;9.48;4.13;;;16.00;99.90;;;;;;5038716;28;20033;-66
2021/06/18 00:34:41;;;;;;;10.38;5.13;;;16.00;99.90;;;;;;5038881;28;20104;-66
2021/06/18 00:37:07;;;;;;;10.27;4.55;;;15.90;99.90;;;;;;5038949;28;20029;-66
2021/06/18 00:39:34;;;;;;;7.53;3.80;;;16.00;99.90;;;;;;5038894;28;20028;-66
2021/06/18 00:42:00;;;;;;;14.05;4.30;;;16.00;99.90;;;;;;5038561;28;20021;-66
2021/06/18 00:44:26;;;;;;;14.70;6.30;;;16.00;99.90;;;;;;5038760;28;20026;-66
2021/06/18 00:46:53;;;;;;;10.23;5.00;;;15.90;99.90;;;;;;5038503;28;20060;-66
2021/06/18 00:49:19;;;;;;;13.68;5.32;;;16.10;99.90;;;;;;5038649;28;20021;-66
2021/06/18 00:51:45;;;;;;;10.63;4.57;;;16.00;99.90;;;;;;5038512;28;20057;-66
2021/06/18 00:54:13;;;;;;;7.95;4.60;;;16.00;99.90;;;;;;5038150;28;20108;-66
2021/06/18 00:56:40;;;;;;;15.13;6.65;;;16.00;99.90;;;;;;5038231;28;20051;-66
2021/06/18 00:59:06;;;;;;;13.45;5.20;;;16.10;99.90;;;;;;5038208;28;20025;-66
2021/06/18 01:01:32;;;;;;;11.82;5.32;;;16.00;99.90;;;;;;5038205;28;20025;-66
2021/06/18 01:03:58;;;;;;;12.20;5.60;;;16.00;99.90;;;;;;5038530;28;20071;-66
2021/06/18 01:06:34;;;;;;;10.77;5.38;;;16.00;99.90;;;;;;5037918;28;20026;-66
2021/06/18 01:09:14;;;;;;;11.10;6.13;;;16.10;99.90;;;;;;5038273;28;20022;-66
2021/06/18 01:11:45;;;;;;;13.27;5.38;;;16.00;99.90;;;;;;5038012;28;20022;-66
2021/06/18 01:14:24;;;;;;;9.48;5.95;;;16.00;99.90;;;;;;5038018;28;20381;-66
2021/06/18 01:17:04;;;;;;;17.73;6.30;;;16.00;99.90;;;;;;5038055;28;20053;-66
2021/06/18 01:19:53;;;;;;;17.23;6.32;;;16.00;99.90;;;;;;5037564;28;20424;-66
2021/06/18 01:22:22;;;;;;;13.23;6.60;;;16.00;99.90;;;;;;5037708;28;20465;-66
2021/06/18 01:25:03;;;;;;;14.65;7.05;;;16.00;99.90;;;;;;5037891;28;20115;-66
2021/06/18 01:27:32;;;;;;;12.20;6.25;;;16.00;99.90;;;;;;5037794;28;20036;-66
2021/06/18 01:30:11;;;;;;;15.25;6.97;;;16.00;99.90;;;;;;5037548;28;20059;-66
2021/06/18 01:32:43;;;;;;;18.38;6.45;;;15.90;99.90;;;;;;5037728;28;20037;-66
2021/06/18 01:35:17;;;;;;;15.32;6.43;;;16.00;99.90;;;;;;5038092;28;20036;-66
2021/06/18 01:37:48;;;;;;;12.65;7.10;;;15.90;99.90;;;;;;5024855;28;20076;-66
2021/06/18 01:40:17;;;;;;;16.42;7.30;;;15.90;99.90;;;;;;5037621;28;20026;-65
2021/06/18 01:42:45;;;;;;;10.73;6.88;;;16.00;99.90;;;;;;5037477;28;20029;-65
2021/06/18 01:45:14;;;;;;;16.80;7.20;;;15.90;99.90;;;;;;5037326;28;20124;-66
2021/06/18 01:47:43;;;;;;;15.43;7.00;;;15.90;99.90;;;;;;5037341;28;20032;-66
2021/06/18 01:50:12;;;;;;;17.00;8.18;;;15.90;99.90;;;;;;5037196;28;20018;-66
2021/06/18 01:52:42;;;;;;;16.98;7.60;;;15.90;99.90;;;;;;5037237;28;20029;-66
2021/06/18 01:55:09;;;;;;;17.05;8.15;;;15.80;99.90;;;;;;5037070;28;20040;-65
2021/06/18 01:57:38;;;;;;;14.35;7.35;;;15.70;99.90;;;;;;5037077;28;20026;-66
2021/06/18 02:00:07;;;;;;;13.05;7.32;;;15.70;99.90;;;;;;5036950;28;20385;-66
2021/06/18 02:02:34;;;;;;;14.48;7.93;;;15.80;99.90;;;;;;5037090;28;20088;-66
2021/06/18 02:05:03;;;;;;;14.52;7.60;;;15.80;99.90;;;;;;5037131;28;20021;-66
2021/06/18 02:07:30;;;;;;;20.20;8.07;;;15.80;99.90;;;;;;5036874;28;20029;-66
2021/06/18 02:09:59;;;;;;;19.42;8.98;;;15.80;99.90;;;;;;5037109;28;20033;-66
2021/06/18 02:12:25;;;;;;;13.43;6.90;;;15.80;99.90;;;;;;5036891;28;20083;-66
2021/06/18 02:14:54;;;;;;;14.05;7.60;;;15.80;99.90;;;;;;5036928;28;20028;-66
2021/06/18 02:17:22;;;;;;;15.20;7.78;;;15.80;99.90;;;;;;5036865;28;20424;-66
2021/06/18 02:19:49;;;;;;;14.13;7.03;;;15.70;99.90;;;;;;5036718;28;21327;-66
2021/06/18 02:22:18;;;;;;;11.68;7.13;;;15.70;99.90;;;;;;5036737;28;20033;-66
2021/06/18 02:24:44;;;;;;;12.38;7.25;;;15.70;99.90;;;;;;5024598;28;20082;-66
2021/06/18 02:27:14;;;;;;;17.25;8.20;;;15.70;99.90;;;;;;5036558;28;20572;-66
2021/06/18 02:29:44;;;;;;;13.02;8.27;;;15.70;99.90;;;;;;5036047;28;20049;-66
2021/06/18 02:32:13;;;;;;;14.48;8.57;;;15.70;99.90;;;;;;5036513;28;20030;-66
2021/06/18 02:34:39;;;;;;;15.40;8.20;;;15.60;99.90;;;;;;5036676;28;20025;-66
2021/06/18 02:37:08;;;;;;;13.93;8.45;;;15.60;99.90;;;;;;5036668;28;20057;-66
2021/06/18 02:39:33;;;;;;;15.35;8.13;;;15.50;99.90;;;;;;5036829;28;20021;-66
2021/06/18 02:41:59;;;;;;;16.33;10.18;;;15.40;99.90;;;;;;5036704;28;20022;-66
2021/06/18 02:44:26;;;;;;;18.92;8.55;;;15.40;99.90;;;;;;5036519;28;20037;-66
2021/06/18 02:46:54;;;;;;;14.05;8.25;;;15.60;99.90;;;;;;5036471;28;20053;-66
2021/06/18 02:49:28;;;;;;;13.23;8.77;;;15.50;99.90;;;;;;5036679;28;20030;-67
2021/06/18 02:52:05;;;;;;;17.27;8.45;;;15.50;99.90;;;;;;5036113;28;20034;-67
2021/06/18 02:54:49;;;;;;;;;;;15.50;99.90;;;;;;5036846;28;20108;-67
2021/06/18 02:57:21;;;;;;;12.38;8.43;;;15.40;99.90;;;;;;5036357;28;19912;-67
2021/06/18 02:59:57;;;;;;;19.00;8.93;;;15.40;99.90;;;;;;5036420;28;20021;-67
2021/06/18 03:02:31;;;;;;;11.93;8.68;;;15.40;99.90;;;;;;5036365;28;20507;-67
2021/06/18 03:04:58;;;;;;;15.63;8.73;;;15.40;99.90;;;;;;5036307;28;20035;-67
2021/06/18 03:07:33;;;;;;;15.95;9.70;;;15.40;99.90;;;;;;5036127;28;20025;-67
2021/06/18 03:10:03;;;;;;;19.92;10.07;;;15.40;99.90;;;;;;5036406;28;20033;-67
2021/06/18 03:12:31;;;;;;;19.80;9.40;;;15.40;99.90;;;;;;5036566;28;20116;-67
2021/06/18 03:15:08;;;;;;;21.92;10.23;;;15.30;99.90;;;;;;5036500;28;20072;-67
2021/06/18 03:17:38;;;;;;;16.02;9.55;;;15.40;99.90;;;;;;5036233;28;20053;-67
2021/06/18 03:20:14;;;;;;;16.05;10.77;;;15.50;99.90;;;;;;5036230;28;20028;-67
2021/06/18 03:22:42;;;;;;;19.17;9.77;;;15.40;99.90;;;;;;5035931;28;20109;-67
2021/06/18 03:25:08;;;;;;;15.10;9.27;;;15.30;99.90;;;;;;5036162;28;20052;-67
2021/06/18 03:27:37;;;;;;;15.38;9.23;;;15.50;99.90;;;;;;5035860;28;20516;-67
2021/06/18 03:30:05;;;;;;;15.70;9.30;;;15.40;99.90;;;;;;5035902;28;20053;-67
2021/06/18 03:32:35;;;;;;;17.70;9.68;;;15.30;99.90;;;;;;5036346;28;20087;-67
2021/06/18 03:35:01;;;;;;;12.93;8.90;;;15.40;99.90;;;;;;5036554;28;20032;-67
2021/06/18 03:37:27;;;;;;;13.60;8.95;;;15.30;99.90;;;;;;5035754;28;20053;-67
2021/06/18 03:39:54;;;;;;;18.35;9.95;;;15.40;99.90;;;;;;5036031;28;20111;-67
2021/06/18 03:42:21;;;;;;;16.58;8.25;;;15.30;99.90;;;;;;5038272;28;20055;-67
2021/06/18 03:44:48;;;;;;;14.02;8.27;;;15.20;99.90;;;;;;5039786;28;20035;-67
2021/06/18 03:47:15;;;;;;;11.85;8.55;;;15.30;99.90;;;;;;5039617;28;20029;-67
2021/06/18 03:49:45;;;;;;;13.18;8.23;;;15.20;99.90;;;;;;5039633;28;20385;-67
2021/06/18 03:52:11;;;;;;;13.77;7.72;;;15.30;99.90;;;;;;5039229;28;20017;-67
2021/06/18 03:54:38;;;;;;;13.02;8.15;;;15.50;99.90;;;;;;5039661;28;20105;-67
2021/06/18 03:57:05;;;;;;;11.40;6.75;;;15.30;99.90;;;;;;5039586;28;20021;-68
2021/06/18 03:59:33;;;;;;;17.08;8.90;;;15.40;99.90;;;;;;5039552;28;20489;-67
2021/06/18 04:02:00;;;;;;;17.00;9.55;;;15.40;99.90;;;;;;5039847;28;20022;-67
2021/06/18 04:04:30;;;;;;;14.10;8.85;;;15.40;99.90;;;;;;5039312;28;20026;-67
2021/06/18 04:06:57;;;;;;;14.48;9.40;;;15.40;99.90;;;;;;5039090;28;20096;-67
2021/06/18 04:09:24;;;;;;;13.25;8.73;;;15.40;99.90;;;;;;5039155;28;20043;-67
2021/06/18 04:11:51;;;;;;;12.85;9.00;;;15.40;99.90;;;;;;5039374;28;20025;-67
2021/06/18 04:14:17;;;;;;;14.15;9.20;;;15.40;99.90;;;;;;5039133;28;20033;-67
2021/06/18 04:16:43;;;;;;;18.52;9.85;;;15.40;99.90;;;;;;5039043;28;20397;-68
2021/06/18 04:19:12;;;;;;;12.30;8.02;;;15.40;99.90;;;;;;5038951;28;20073;-67
2021/06/18 04:21:45;;;;;;;13.07;8.82;;;15.40;99.90;;;;;;5039220;28;20079;-67
2021/06/18 04:24:15;;;;;;;13.93;9.02;;;15.40;99.90;;;;;;5038930;28;20033;-68
2021/06/18 04:26:42;;;;;;;17.52;9.35;;;15.30;99.90;;;;;;5039121;28;20034;-68
2021/06/18 04:29:08;;;;;;;11.85;8.45;;;15.60;99.90;;;;;;5038561;28;20049;-68
2021/06/18 04:31:36;;;;;;;16.63;9.15;;;15.40;99.90;;;;;;5038804;28;20025;-67
2021/06/18 04:34:04;;;;;;;13.57;9.77;;;15.60;99.90;;;;;;5038742;28;20098;-67
2021/06/18 04:36:31;;;;;;;13.75;9.65;;;15.50;99.90;;;;;;5039477;28;20063;-68
2021/06/18 04:38:58;;;;;;;19.05;9.82;;;15.50;99.90;;;;;;5038292;28;20229;-68
2021/06/18 04:41:28;;;;;;;18.75;10.35;;;15.50;99.90;;;;;;5038863;28;20056;-68
2021/06/18 04:43:53;;;;;;;16.73;10.60;;;15.50;99.90;;;;;;5038366;28;20433;-68
2021/06/18 04:46:20;;;;;;;22.27;11.00;;;15.60;99.90;;;;;;5038539;28;20025;-68
2021/06/18 04:48:45;;;;;;;17.48;10.20;;;15.50;99.90;;;;;;5038407;28;20049;-68
2021/06/18 04:51:11;;;;;;;22.58;11.70;;;15.50;99.90;;;;;;5038550;28;20024;-68
2021/06/18 04:53:37;;;;;;;18.23;11.13;;;15.60;99.90;;;;;;5037505;28;20401;-68
2021/06/18 04:56:04;;;;;;;16.77;10.27;;;15.70;99.90;;;;;;5038125;28;20405;-68
2021/06/18 04:58:31;;;;;;;17.60;11.20;;;15.60;99.90;;;;;;5038420;28;20128;-68
2021/06/18 05:00:57;;;;;;;19.65;11.30;;;15.70;99.90;;;;;;5038262;28;20022;-68
2021/06/18 05:03:23;;;;;;;18.10;11.55;;;15.70;99.90;;;;;;5038162;28;20512;-68
2021/06/18 05:05:49;;;;;;;20.70;11.60;;;15.70;99.90;;;;;;5038182;28;20026;-66
2021/06/18 05:08:15;;;;;;;22.38;11.63;;;15.70;99.90;;;;;;5031221;28;20079;-68
2021/06/18 05:10:41;;;;;;;18.15;12.55;;;15.70;99.90;;;;;;5030069;28;20519;-67
2021/06/18 05:13:06;;;;;;;19.73;11.23;;;15.70;99.90;;;;;;5037861;28;20041;-68
2021/06/18 05:15:32;;;;;;;20.15;12.48;;;15.70;99.90;;;;;;5037419;28;20028;-68
2021/06/18 05:18:00;;;;;;;21.30;12.98;;;15.80;99.90;;;;;;5038267;28;20104;-68
2021/06/18 05:20:26;;;;;;;18.60;11.85;;;15.70;99.90;;;;;;5037855;28;20107;-68
2021/06/18 05:22:52;;;;;;;20.20;11.90;;;15.70;99.90;;;;;;5037231;28;20033;-68
2021/06/18 05:25:18;;;;;;;17.20;11.15;;;15.80;99.90;;;;;;5037288;28;20028;-68
2021/06/18 05:27:44;;;;;;;21.48;11.90;;;15.80;99.90;;;;;;5037065;28;20076;-68
2021/06/18 05:30:11;;;;;;;16.55;10.90;;;15.90;99.90;;;;;;5035697;28;20049;-68
2021/06/18 05:32:37;;;;;;;21.88;11.30;;;15.90;99.90;;;;;;5037332;28;20029;-68
2021/06/18 05:35:05;;;;;;;17.50;10.30;;;15.90;99.90;;;;;;5037926;28;20037;-68
2021/06/18 05:37:31;;;;;;;17.85;10.45;;;16.00;99.90;;;;;;5037453;28;20078;-68
2021/06/18 05:39:56;;;;;;;18.88;10.45;;;16.00;99.90;;;;;;5037886;28;20454;-68
2021/06/18 05:42:22;;;;;;;19.63;11.05;;;15.90;99.90;;;;;;5037438;28;20017;-68
2021/06/18 05:44:48;;;;;;;17.08;11.23;;;16.00;99.90;;;;;;5037444;28;20022;-68
2021/06/18 05:47:14;;;;;;;17.38;10.40;;;15.90;99.90;;;;;;5037372;28;20485;-68
2021/06/18 05:49:40;;;;;;;15.57;10.82;;;16.00;99.90;;;;;;5037537;28;20231;-68
2021/06/18 05:52:06;;;;;;;15.70;10.52;;;15.90;99.90;;;;;;5037226;28;20036;-68
2021/06/18 05:54:32;;;;;;;16.25;9.63;;;15.90;99.90;;;;;;5037556;28;20029;-68
2021/06/18 05:56:58;;;;;;;12.55;9.13;;;15.90;99.90;;;;;;5037235;28;20390;-68
2021/06/18 05:59:24;;;;;;;16.25;9.40;;;15.90;99.90;;;;;;5037171;28;20056;-68
2021/06/18 06:01:50;;;;;;;11.73;7.78;;;16.00;99.90;;;;;;5037129;28;20385;-68
2021/06/18 06:04:15;;;;;;;13.90;9.38;;;15.90;99.90;;;;;;5037067;28;20032;-68
2021/06/18 06:06:41;;;;;;;12.55;8.23;;;16.10;99.90;;;;;;5036317;28;20512;-68
2021/06/18 06:09:07;;;;;;;11.45;7.88;;;16.00;99.90;;;;;;5037121;28;20561;-68
2021/06/18 06:11:34;;;;;;;10.02;7.18;;;16.00;99.90;;;;;;5037215;28;20068;-68
2021/06/18 06:14:02;;;;;;;8.38;6.53;;;16.10;99.90;;;;;;5037017;28;20033;-68
2021/06/18 06:16:33;;;;;;;9.32;6.30;;;16.00;99.90;;;;;;5037073;28;20025;-68
2021/06/18 06:19:00;;;;;;;10.23;6.25;;;16.00;99.90;;;;;;5037202;28;20104;-68
2021/06/18 06:21:26;;;;;;;6.78;5.93;;;16.10;99.90;;;;;;5037037;28;20033;-68
2021/06/18 06:23:52;;;;;;;9.65;6.18;;;16.00;99.90;;;;;;5036550;28;20025;-68
2021/06/18 06:26:20;;;;;;;8.85;5.45;;;16.10;99.90;;;;;;5036743;28;20049;-68
2021/06/18 06:28:46;;;;;;;7.43;5.53;;;16.20;99.90;;;;;;5036279;28;20175;-68
2021/06/18 06:31:12;;;;;;;7.05;5.38;;;16.20;99.90;;;;;;5036839;28;20116;-68
2021/06/18 06:33:38;;;;;;;5.78;5.15;;;16.30;99.90;;;;;;5036522;28;20025;-68
2021/06/18 06:36:05;;;;;;;8.38;4.82;;;16.30;99.90;;;;;;5036956;28;20026;-68
2021/06/18 06:38:31;;;;;;;6.13;4.85;;;16.30;99.90;;;;;;5036458;28;20022;-68
2021/06/18 06:40:57;;;;;;;5.53;4.45;;;16.30;99.90;;;;;;5036725;28;20478;-68
2021/06/18 06:43:23;;;;;;;5.90;4.43;;;16.40;99.90;;;;;;5036355;28;20384;-68
2021/06/18 06:45:50;;;;;;;5.57;4.00;;;16.40;99.90;;;;;;5036494;28;20486;-68
2021/06/18 06:48:16;;;;;;;4.15;3.75;;;16.50;99.90;;;;;;5036502;28;20075;-68
2021/06/18 06:50:42;;;;;;;26.83;4.82;;;16.50;99.90;;;;;;5036757;28;20085;-68
2021/06/18 06:53:08;;;;;;;6.20;3.13;;;16.50;99.90;;;;;;5036139;28;20516;-68
2021/06/18 06:55:34;;;;;;;3.38;2.80;;;16.60;99.90;;;;;;5036458;28;20029;-68
2021/06/18 06:58:00;;;;;;;4.07;2.75;;;16.60;99.90;;;;;;5036508;28;20018;-68
2021/06/18 07:00:26;;;;;;;3.78;2.38;;;16.50;99.90;;;;;;5036672;28;20035;-68
2021/06/18 07:02:53;;;;;;;5.10;2.35;;;16.70;99.90;;;;;;5036235;28;20081;-68
2021/06/18 07:05:19;;;;;;;2.83;2.22;;;16.70;99.90;;;;;;5036242;28;20045;-68
2021/06/18 07:07:45;;;;;;;2.00;1.90;;;16.80;99.90;;;;;;5036136;28;20025;-68
2021/06/18 07:10:12;;;;;;;2.75;2.35;;;16.80;99.90;;;;;;5036569;28;20033;-68
2021/06/18 07:12:38;;;;;;;6.65;2.00;;;16.90;99.90;;;;;;5036152;28;20026;-68
2021/06/18 07:15:04;;;;;;;3.83;1.88;;;16.80;99.90;;;;;;5036176;28;20088;-69
2021/06/18 07:17:30;;;;;;;4.55;2.05;;;16.90;99.90;;;;;;5039023;28;20020;-68
2021/06/18 07:19:57;;;;;;;3.08;1.50;;;17.00;99.90;;;;;;5040253;28;20382;-68
2021/06/18 07:22:24;;;;;;;2.45;1.88;;;17.20;99.90;;;;;;5039687;28;20114;-68
2021/06/18 07:24:50;;;;;;;3.53;1.60;;;17.30;99.90;;;;;;5040084;28;20389;-68
2021/06/18 07:27:16;;;;;;;3.72;1.80;;;17.40;99.90;;;;;;5039815;28;20029;-68
2021/06/18 07:29:43;;;;;;;2.00;1.75;;;17.40;99.90;;;;;;5039667;28;20140;-68
2021/06/18 07:32:10;;;;;;;2.00;1.50;;;17.60;99.90;;;;;;5039659;28;20050;-68
2021/06/18 07:34:36;;;;;;;2.63;1.70;;;17.70;99.90;;;;;;5039967;28;20044;-68
2021/06/18 07:37:04;;;;;;;2.20;1.73;;;17.80;99.90;;;;;;5039981;28;20021;-68
2021/06/18 07:39:30;;;;;;;4.07;1.55;;;17.70;99.90;;;;;;5040197;28;20022;-68
2021/06/18 07:41:55;;;;;;;5.97;2.13;;;17.90;99.90;;;;;;5039527;28;20072;-68
2021/06/18 07:44:21;;;;;;;3.58;2.05;;;17.90;99.90;;;;;;5039797;28;20104;-68
2021/06/18 07:46:47;;;;;;;2.60;1.60;;;18.00;99.90;;;;;;5039867;28;20085;-68
2021/06/18 07:49:13;;;;;;;2.65;1.80;;;18.00;99.90;;;;;;5039882;28;20033;-68
2021/06/18 07:51:39;;;;;;;2.75;2.00;;;18.10;99.90;;;;;;5039369;28;20036;-68
2021/06/18 07:54:06;;;;;;;2.20;1.50;;;18.20;99.90;;;;;;5039738;28;20488;-68
2021/06/18 07:56:33;;;;;;;3.40;1.65;;;18.40;99.90;;;;;;5039665;28;20071;-68
2021/06/18 07:59:00;;;;;;;3.28;1.83;;;18.40;99.90;;;;;;5039652;28;20021;-68
2021/06/18 08:01:26;;;;;;;3.28;1.50;;;18.50;99.90;;;;;;5039598;28;20017;-69
2021/06/18 08:03:52;;;;;;;2.67;1.65;;;18.30;99.90;;;;;;5039604;28;20031;-68
2021/06/18 08:06:18;;;;;;;2.00;1.33;;;18.30;99.90;;;;;;5039588;28;20041;-68
2021/06/18 08:08:45;;;;;;;2.40;1.45;;;18.30;99.90;;;;;;5039205;28;20041;-68
2021/06/18 08:11:12;;;;;;;3.72;1.40;;;18.40;99.90;;;;;;5039292;28;20025;-68
2021/06/18 08:13:37;;;;;;;3.30;1.63;;;18.60;99.90;;;;;;5039019;28;20071;-68
2021/06/18 08:16:05;;;;;;;2.88;1.42;;;18.50;99.90;;;;;;5039090;28;20026;-68
2021/06/18 08:18:34;;;;;;;1.40;1.30;;;18.50;99.90;;;;;;5039534;28;20030;-68
2021/06/18 08:21:00;;;;;;;1.50;1.20;;;18.50;99.90;;;;;;5019678;28;20022;-68
2021/06/18 08:23:26;;;;;;;2.55;1.17;;;18.60;99.90;;;;;;5018961;28;20033;-68
2021/06/18 08:25:52;;;;;;;2.13;1.25;;;18.70;99.90;;;;;;5019323;28;20032;-68
2021/06/18 08:28:18;;;;;;;1.02;1.02;;;19.00;99.90;;;;;;5018164;28;20076;-68
2021/06/18 08:30:44;;;;;;;4.07;1.00;;;19.10;99.90;;;;;;5036149;28;20041;-68
2021/06/18 08:33:10;;;;;;;1.55;1.20;;;19.20;99.90;;;;;;5038751;28;20030;-68
2021/06/18 08:35:35;;;;;;;3.35;1.05;;;19.20;99.90;;;;;;5039111;28;20452;-68
2021/06/18 08:38:02;;;;;;;2.00;0.93;;;19.30;99.90;;;;;;5038817;28;20021;-68
2021/06/18 08:40:32;;;;;;;4.00;1.05;;;19.20;99.90;;;;;;5038749;28;20109;-68
2021/06/18 08:42:58;;;;;;;2.13;1.20;;;19.10;99.90;;;;;;5038461;28;20379;-68
2021/06/18 08:45:24;;;;;;;2.80;1.17;;;19.00;99.90;;;;;;5038455;28;20567;-68
2021/06/18 08:47:50;;;;;;;1.55;1.00;;;19.00;99.90;;;;;;5038733;28;20108;-68
2021/06/18 08:50:24;;;;;;;1.10;1.00;;;19.00;99.90;;;;;;5038860;28;20038;-68
2021/06/18 08:52:53;;;;;;;1.33;1.20;;;19.00;99.90;;;;;;5038154;28;20075;-68
2021/06/18 08:55:20;;;;;;;2.67;1.10;;;19.10;99.90;;;;;;5038407;28;20367;-68
2021/06/18 08:57:55;;;;;;;7.32;1.45;;;19.10;99.90;;;;;;5038280;28;20063;-68
2021/06/18 09:00:23;;;;;;;2.80;1.45;;;19.00;99.90;;;;;;5038586;28;20108;-68
2021/06/18 09:02:49;;;;;;;4.10;1.35;;;19.10;99.90;;;;;;5038274;28;20024;-68
2021/06/18 09:05:16;;;;;;;1.67;1.52;;;19.10;99.90;;;;;;5038298;28;20515;-68
2021/06/18 09:08:03;;;;;;;2.85;1.20;;;18.90;99.90;;;;;;5037899;28;20452;-68
2021/06/18 09:10:40;;;;;;;2.25;1.40;;;18.70;99.90;;;;;;5038815;28;20033;-68
2021/06/18 09:13:20;;;;;;;2.00;1.40;;;18.60;99.90;;;;;;5038275;28;20057;-68
2021/06/18 09:15:50;;;;;;;1.30;1.20;;;18.60;99.90;;;;;;5037755;28;20029;-68
2021/06/18 09:18:39;;;;;;;2.72;1.35;;;18.70;99.90;;;;;;5038241;28;20104;-68
2021/06/18 09:21:05;;;;;;;1.85;1.40;;;18.80;99.90;;;;;;5018045;28;20052;-68
2021/06/18 09:23:34;;;;;;;1.30;1.20;;;19.00;99.90;;;;;;5018054;28;20018;-68
2021/06/18 09:26:19;;;;;;;2.53;0.90;;;19.20;99.90;;;;;;5018563;28;20536;-68
2021/06/18 09:29:13;;;;;;;1.75;1.17;;;19.20;99.90;;;;;;5018561;28;20112;-68
2021/06/18 09:31:58;;;;;;;3.00;1.20;;;19.30;99.90;;;;;;5037713;28;20028;-68
2021/06/18 09:35:01;;;;;;;1.00;1.00;;;19.40;99.90;;;;;;5037832;28;20120;-68
2021/06/18 09:37:40;;;;;;;1.38;1.08;;;19.40;99.90;;;;;;5017632;28;20382;-68
2021/06/18 09:40:17;;;;;;;1.83;1.00;;;19.30;99.90;;;;;;5017731;28;20030;-68
2021/06/18 09:42:54;;;;;;;3.10;1.00;;;19.20;99.90;;;;;;5017650;28;20084;-68
2021/06/18 09:45:25;;;;;;;2.53;1.10;;;19.10;99.90;;;;;;5017782;28;20032;-68
2021/06/18 09:47:53;;;;;;;1.70;1.17;;;19.10;99.90;;;;;;5017834;28;20038;-68
2021/06/18 09:50:26;;;;;;;1.92;0.88;;;19.10;99.90;;;;;;5017783;28;20057;-68
2021/06/18 09:53:12;;;;;;;0.77;0.77;;;19.30;99.90;;;;;;5017290;28;20029;-68
2021/06/18 09:55:39;;;;;;;0.80;0.80;;;19.20;99.90;;;;;;5017461;28;20502;-68
2021/06/18 09:58:05;;;;;;;2.40;0.82;;;19.10;99.90;;;;;;5017303;28;20054;-68
2021/06/18 10:00:31;;;;;;;2.70;1.00;;;19.30;99.90;;;;;;5017738;28;20022;-68
2021/06/18 10:02:57;;;;;;;0.90;0.80;;;19.40;99.90;;;;;;5017248;28;20032;-68
2021/06/18 10:05:25;;;;;;;1.02;0.90;;;19.40;99.90;;;;;;5017337;28;20026;-68
2021/06/18 10:07:53;;;;;;;1.52;0.77;;;19.50;99.90;;;;;;5017194;28;20038;-68
2021/06/18 10:10:20;;;;;;;1.27;0.70;;;19.50;99.90;;;;;;5017573;28;20036;-68
2021/06/18 10:12:47;;;;;;;2.47;0.77;;;19.70;99.90;;;;;;5017096;28;20477;-68
2021/06/18 10:15:16;;;;;;;2.50;0.80;;;19.90;99.90;;;;;;5029906;28;20032;-68
2021/06/18 10:17:44;;;;;;;1.30;0.70;;;20.00;99.90;;;;;;5036998;28;20072;-68
2021/06/18 10:20:11;;;;;;;0.85;0.70;;;20.10;99.90;;;;;;5036893;28;20060;-68
2021/06/18 10:22:54;;;;;;;2.00;0.63;;;20.30;99.90;;;;;;5036865;28;20025;-68
2021/06/18 10:25:44;;;;;;;1.08;0.60;;;20.50;99.90;;;;;;5036628;28;20034;-68
2021/06/18 10:28:17;;;;;;;0.57;0.57;;;20.70;99.90;;;;;;5036867;28;20063;-68
2021/06/18 10:30:48;;;;;;;0.50;0.50;;;20.70;99.90;;;;;;5033785;28;20045;-68
2021/06/18 10:33:29;;;;;;;0.77;0.55;;;20.80;99.90;;;;;;5036894;28;20121;-68
2021/06/18 10:36:05;;;;;;;0.50;0.50;;;20.80;99.90;;;;;;5036997;28;20030;-68
2021/06/18 10:38:42;;;;;;;7.60;0.57;;;21.10;99.90;;;;;;5036724;28;20022;-68
2021/06/18 10:41:16;;;;;;;0.43;0.43;;;21.40;99.90;;;;;;5036782;28;20029;-67
2021/06/18 10:43:47;;;;;;;0.45;0.43;;;21.90;99.90;;;;;;5036552;28;20060;-68
2021/06/18 10:46:18;;;;;;;0.40;0.40;;;22.20;99.90;;;;;;5036657;28;20044;-68
2021/06/18 10:48:47;;;;;;;0.30;0.30;;;22.70;99.90;;;;;;5036729;28;20053;-68
2021/06/18 10:54:02;;;;;;;0.55;0.45;;;23.10;99.90;;;;;;5036772;28;20056;-67
2021/06/18 10:56:49;;;;;;;0.63;0.40;;;23.50;99.90;;;;;;5036433;28;20036;-68
2021/06/18 10:59:28;;;;;;;0.35;0.20;;;23.40;99.90;;;;;;5036312;28;20029;-68
2021/06/18 11:01:54;;;;;;;1.35;0.35;;;23.50;99.90;;;;;;5036610;28;20474;-68
2021/06/18 11:04:43;;;;;;;0.30;0.30;;;24.00;99.90;;;;;;5036331;28;20029;-68
2021/06/18 11:07:24;;;;;;;0.43;0.22;;;25.10;99.90;;;;;;5036024;28;20014;-68
2021/06/18 11:10:01;;;;;;;0.40;0.40;;;25.50;99.90;;;;;;5036251;28;20052;-68
2021/06/18 11:12:27;;;;;;;0.82;0.63;;;25.00;99.90;;;;;;5036300;28;20022;-68
2021/06/18 11:14:57;;;;;;;0.25;0.20;;;24.70;99.90;;;;;;5036300;28;20044;-68
2021/06/18 11:17:39;;;;;;;0.65;0.30;;;24.70;99.90;;;;;;5018871;28;20022;-68
2021/06/18 11:20:16;;;;;;;0.55;0.32;;;24.50;99.90;;;;;;5016472;28;20049;-68
2021/06/18 11:23:05;;;;;;;2.88;0.50;;;24.20;99.90;;;;;;5023785;28;20051;-68
2021/06/18 11:25:40;;;;;;;0.40;0.20;;;24.00;99.90;;;;;;5036445;28;20060;-68
2021/06/18 11:28:21;;;;;;;0.52;0.22;;;23.90;99.90;;;;;;5036373;28;20022;-68
2021/06/18 11:31:07;;;;;;;0.30;0.30;;;23.60;99.90;;;;;;4994562;28;20038;-68
2021/06/18 11:33:39;;;;;;;;;;;23.50;99.90;;;;;;4997204;28;20038;-68
2021/06/18 11:36:09;;;;;;;0.40;0.30;;;23.40;99.90;;;;;;4997112;28;19913;-68
2021/06/18 11:38:36;;;;;;;0.60;0.50;;;23.40;99.90;;;;;;4996455;28;20026;-68
2021/06/18 11:41:09;;;;;;;0.30;0.30;;;23.50;99.90;;;;;;4996943;28;20046;-67
2021/06/18 11:43:35;;;;;;;0.60;0.30;;;23.30;99.90;;;;;;4996483;28;20050;-67
2021/06/18 11:46:01;;;;;;;0.30;0.30;;;23.10;99.90;;;;;;4996863;28;20382;-67
2021/06/18 11:48:27;;;;;;;0.28;0.28;;;23.00;99.90;;;;;;4996542;28;20018;-68
2021/06/18 11:50:54;;;;;;;1.48;0.50;;;23.00;99.90;;;;;;4996673;28;20061;-68
2021/06/18 11:53:23;;;;;;;0.40;0.30;;;23.10;99.90;;;;;;4996529;28;20026;-68
2021/06/18 11:56:00;;;;;;;0.20;0.20;;;23.00;99.90;;;;;;4996580;28;20037;-68
2021/06/18 11:58:32;;;;;;;1.17;0.20;;;23.00;99.90;;;;;;4996574;28;20023;-68
2021/06/18 12:00:58;;;;;;;0.65;0.30;;;22.70;99.90;;;;;;4996681;28;20030;-67
2021/06/18 12:03:32;;;;;;;0.20;0.20;;;22.60;99.90;;;;;;4997613;28;20030;-67
2021/06/18 12:06:12;;;;;;;1.77;0.30;;;22.70;99.90;;;;;;4999843;28;20030;-67
2021/06/18 12:08:38;;;;;;;1.15;0.25;;;22.70;99.90;;;;;;4999764;28;20022;-67
2021/06/18 12:11:14;;;;;;;0.40;0.30;;;22.70;99.90;;;;;;5000149;28;20038;-67
2021/06/18 12:13:53;;;;;;;0.30;0.30;;;22.50;99.90;;;;;;4999805;28;20026;-67
2021/06/18 12:16:19;;;;;;;0.38;0.38;;;22.30;99.90;;;;;;4999838;28;20109;-67
2021/06/18 12:18:46;;;;;;;0.82;0.45;;;22.10;99.90;;;;;;4999677;28;20057;-67
2021/06/18 12:21:14;;;;;;;2.30;0.40;;;22.10;99.90;;;;;;4999793;28;20106;-67
2021/06/18 12:23:40;;;;;;;0.73;0.50;;;22.20;99.90;;;;;;4999429;28;20021;-67
2021/06/18 12:26:07;;;;;;;1.08;0.40;;;22.10;99.90;;;;;;4999879;28;20031;-67
2021/06/18 12:28:36;;;;;;;0.35;0.35;;;21.80;99.90;;;;;;5003270;28;20022;-67
2021/06/18 12:31:02;;;;;;;1.13;0.57;;;21.70;99.90;;;;;;5039114;28;20065;-67
2021/06/18 12:33:28;;;;;;;0.45;0.43;;;21.90;99.90;;;;;;5038794;28;20022;-67
2021/06/18 12:35:58;;;;;;;2.60;0.50;;;22.10;99.90;;;;;;5039184;28;20263;-67
2021/06/18 12:38:24;;;;;;;1.02;0.30;;;22.40;99.90;;;;;;5038494;28;20026;-67
2021/06/18 12:40:50;;;;;;;0.38;0.38;;;22.80;99.90;;;;;;5038889;28;20485;-67
2021/06/18 12:43:17;;;;;;;1.05;0.45;;;23.20;99.90;;;;;;5038571;28;20024;-67
2021/06/18 12:45:45;;;;;;;2.28;0.40;;;23.70;99.90;;;;;;5038490;28;20029;-67
2021/06/18 12:48:29;;;;;;;0.50;0.50;;;23.60;99.90;;;;;;5038555;28;20075;-68
2021/06/18 12:50:58;;;;;;;1.00;0.50;;;23.40;99.90;;;;;;5038419;28;20087;-67
2021/06/18 12:53:36;;;;;;;0.55;0.55;;;22.90;99.90;;;;;;5038509;28;20025;-67